createdAt,value
2018-01-12T00:02:00.186Z,91.50
2018-01-12T00:04:30.074Z,91.30
2018-01-12T00:06:59.839Z,91.30
2018-01-12T00:09:29.663Z,91.40
2018-01-12T00:11:59.476Z,91.00
2018-01-12T00:14:30.015Z,90.70
2018-01-12T00:17:00.372Z,90.60
2018-01-12T00:19:30.754Z,90.60
2018-01-12T00:22:01.190Z,90.30
2018-01-12T00:24:32.041Z,91.20
2018-01-12T00:27:02.217Z,91.20
2018-01-12T00:29:32.239Z,91.40
2018-01-12T00:32:02.745Z,91.40
2018-01-12T00:34:32.561Z,91.40
2018-01-12T00:37:03.155Z,91.60
2018-01-12T00:39:33.426Z,91.70
2018-01-12T00:42:04.008Z,91.80
2018-01-12T00:44:34.883Z,92.00
2018-01-12T00:47:04.684Z,92.00
2018-01-12T00:49:34.622Z,91.90
2018-01-12T00:52:04.678Z,92.20
2018-01-12T00:54:34.950Z,92.00
2018-01-12T00:57:06.667Z,91.70
2018-01-12T00:59:37.586Z,91.60
2018-01-12T01:02:07.317Z,91.60
2018-01-12T01:04:37.865Z,91.80
2018-01-12T01:07:07.583Z,92.00
2018-01-12T01:09:37.259Z,92.00
2018-01-12T01:12:08.343Z,91.90
2018-01-12T01:14:38.436Z,92.00
2018-01-12T01:17:08.345Z,92.20
2018-01-12T01:19:38.294Z,92.30
2018-01-12T01:22:08.179Z,92.40
2018-01-12T01:24:38.057Z,92.00
2018-01-12T01:27:08.715Z,92.20
2018-01-12T01:29:38.400Z,91.90
2018-01-12T01:32:09.390Z,91.80
2018-01-12T01:34:40.037Z,91.50
2018-01-12T01:37:09.811Z,91.40
2018-01-12T01:39:39.639Z,91.80
2018-01-12T01:42:09.570Z,91.60
2018-01-12T01:44:39.252Z,91.50
2018-01-12T01:47:09.486Z,91.60
2018-01-12T01:49:39.990Z,91.60
2018-01-12T01:52:09.755Z,91.50
2018-01-12T01:54:40.149Z,91.40
2018-01-12T01:57:09.822Z,91.30
2018-01-12T01:59:41.331Z,91.30
2018-01-12T02:02:12.772Z,91.10
2018-01-12T02:04:45.203Z,91.00
2018-01-12T02:07:16.191Z,91.20
2018-01-12T02:09:50.983Z,91.50
2018-01-12T02:12:21.875Z,91.50
2018-01-12T02:14:51.769Z,91.40
2018-01-12T02:17:22.633Z,91.90
2018-01-12T02:19:52.404Z,91.90
2018-01-12T02:22:21.980Z,92.00
2018-01-12T02:24:52.136Z,92.10
2018-01-12T02:27:22.207Z,92.10
2018-01-12T02:29:51.844Z,92.30
2018-01-12T02:32:21.609Z,92.00
2018-01-12T02:34:52.412Z,91.90
2018-01-12T02:37:22.243Z,91.90
2018-01-12T02:39:53.016Z,91.80
2018-01-12T02:42:22.704Z,91.80
2018-01-12T02:44:53.108Z,91.90
2018-01-12T02:47:23.494Z,92.00
2018-01-12T02:49:53.191Z,92.00
2018-01-12T02:52:23.210Z,92.10
2018-01-12T02:54:55.504Z,92.10
2018-01-12T02:57:26.704Z,92.20
2018-01-12T02:59:58.049Z,92.20
2018-01-12T03:02:29.956Z,92.10
2018-01-12T03:05:01.507Z,92.10
2018-01-12T03:07:33.269Z,92.10
2018-01-12T03:10:04.082Z,92.10
2018-01-12T03:12:37.721Z,92.00
2018-01-12T03:15:10.362Z,91.70
2018-01-12T03:17:40.949Z,91.70
2018-01-12T03:20:11.187Z,91.80
2018-01-12T03:22:41.114Z,91.50
2018-01-12T03:25:11.369Z,91.20
2018-01-12T03:27:40.726Z,91.00
2018-01-12T03:30:17.558Z,90.90
2018-01-12T03:32:50.967Z,91.10
2018-01-12T03:35:24.409Z,90.90
2018-01-12T03:38:02.501Z,90.80
2018-01-12T03:40:32.879Z,90.80
2018-01-12T03:43:02.731Z,90.60
2018-01-12T03:45:32.834Z,90.60
2018-01-12T03:48:02.653Z,90.40
2018-01-12T03:50:32.688Z,90.30
2018-01-12T03:53:02.551Z,90.10
2018-01-12T03:55:32.619Z,90.10
2018-01-12T03:58:01.919Z,90.10
2018-01-12T04:00:32.767Z,90.40
2018-01-12T04:03:04.606Z,90.60
2018-01-12T04:05:34.363Z,90.90
2018-01-12T04:08:05.318Z,91.20
2018-01-12T04:10:36.565Z,91.40
2018-01-12T04:13:06.929Z,91.40
2018-01-12T04:15:43.265Z,91.70
2018-01-12T04:18:13.622Z,92.00
2018-01-12T04:20:43.343Z,92.20
2018-01-12T04:23:12.548Z,92.10
2018-01-12T04:25:43.552Z,92.30
2018-01-12T04:28:13.677Z,92.40
2018-01-12T04:30:43.418Z,92.60
2018-01-12T04:33:14.461Z,93.10
2018-01-12T04:35:45.991Z,93.10
2018-01-12T04:38:15.620Z,93.10
2018-01-12T04:40:46.096Z,93.00
2018-01-12T04:43:17.016Z,93.30
2018-01-12T04:45:46.345Z,93.30
2018-01-12T04:48:16.657Z,93.50
2018-01-12T04:50:47.428Z,93.80
2018-01-12T04:53:18.433Z,94.00
2018-01-12T04:55:48.199Z,93.90
2018-01-12T04:58:18.890Z,94.20
2018-01-12T05:00:49.134Z,94.10
2018-01-12T05:03:18.824Z,94.10
2018-01-12T05:05:50.367Z,94.30
2018-01-12T05:08:20.212Z,94.30
2018-01-12T05:10:50.105Z,94.40
2018-01-12T05:13:19.599Z,94.40
2018-01-12T05:15:50.470Z,94.50
2018-01-12T05:18:20.951Z,94.60
2018-01-12T05:20:50.751Z,94.60
2018-01-12T05:23:22.263Z,94.50
2018-01-12T05:25:52.764Z,94.70
2018-01-12T05:28:23.531Z,94.80
2018-01-12T05:30:54.013Z,94.90
2018-01-12T05:33:24.335Z,94.80
2018-01-12T05:35:53.842Z,94.80
2018-01-12T05:38:24.555Z,94.90
2018-01-12T05:40:54.377Z,95.10
2018-01-12T05:43:24.421Z,95.00
2018-01-12T05:45:53.829Z,95.00
2018-01-12T05:48:24.009Z,95.00
2018-01-12T05:50:56.089Z,94.90
2018-01-12T05:53:26.048Z,94.90
2018-01-12T05:55:56.526Z,95.00
2018-01-12T05:58:27.061Z,95.00
2018-01-12T06:01:08.416Z,94.90
2018-01-12T06:03:49.432Z,94.70
2018-01-12T06:06:22.714Z,94.70
2018-01-12T06:08:52.145Z,94.70
2018-01-12T06:11:22.256Z,94.60
2018-01-12T07:25:52.918Z,94.00
2018-01-12T07:28:22.959Z,94.20
2018-01-12T07:30:52.565Z,94.20
2018-01-12T07:33:22.526Z,94.40
2018-01-12T07:35:52.392Z,94.50
2018-01-12T07:38:22.638Z,94.70
2018-01-12T07:40:52.871Z,94.40
2018-01-12T07:43:22.629Z,94.80
2018-01-12T07:45:53.180Z,94.50
2018-01-12T07:48:22.912Z,94.60
2018-01-12T07:50:52.519Z,94.70
2018-01-12T07:53:22.484Z,94.90
2018-01-12T07:55:53.382Z,95.00
2018-01-12T07:58:23.414Z,94.80
2018-01-12T08:00:58.546Z,94.80
2018-01-12T08:03:28.430Z,94.80
2018-01-12T08:05:58.161Z,94.80
2018-01-12T08:08:27.769Z,94.60
2018-01-12T08:10:57.288Z,94.50
2018-01-12T08:13:26.965Z,94.40
2018-01-12T08:15:56.931Z,94.40
2018-01-12T08:18:26.525Z,94.60
2018-01-12T08:20:56.255Z,94.60
2018-01-12T08:23:25.968Z,94.70
2018-01-12T08:25:56.811Z,95.00
2018-01-12T08:28:26.943Z,95.00
2018-01-12T08:30:56.635Z,95.10
2018-01-12T08:33:27.043Z,95.10
2018-01-12T08:35:57.018Z,95.20
2018-01-12T08:38:26.346Z,95.10
2018-01-12T08:40:56.086Z,95.20
2018-01-12T08:43:26.730Z,95.10
2018-01-12T08:45:56.764Z,95.10
2018-01-12T08:48:26.334Z,95.10
2018-01-12T08:50:56.891Z,95.20
2018-01-12T08:53:27.433Z,95.00
2018-01-12T08:55:57.086Z,95.00
2018-01-12T08:58:26.574Z,95.10
2018-01-12T09:00:56.154Z,94.90
2018-01-12T09:03:26.745Z,94.80
2018-01-12T09:05:56.206Z,94.70
2018-01-12T09:08:25.783Z,94.40
2018-01-12T09:10:55.367Z,94.20
2018-01-12T09:13:35.840Z,93.90
2018-01-12T09:16:08.409Z,94.10
2018-01-12T09:18:50.012Z,94.00
2018-01-12T09:21:26.225Z,94.00
2018-01-12T09:23:56.998Z,93.90
2018-01-12T09:26:26.900Z,94.00
2018-01-12T09:28:56.467Z,94.00
2018-01-12T09:31:45.991Z,93.90
2018-01-12T09:34:26.798Z,93.90
2018-01-12T09:36:56.475Z,93.90
2018-01-12T09:39:49.493Z,94.00
2018-01-12T09:42:19.436Z,93.60
2018-01-12T09:44:49.166Z,93.60
2018-01-12T09:47:24.092Z,93.50
2018-01-12T09:49:53.952Z,93.40
2018-01-12T09:52:24.488Z,93.50
2018-01-12T09:54:55.303Z,93.30
2018-01-12T09:57:24.857Z,93.30
2018-01-12T10:00:01.668Z,93.40
2018-01-12T10:02:31.793Z,93.90
2018-01-12T10:05:01.466Z,94.00
2018-01-12T10:07:41.997Z,94.10
2018-01-12T10:10:11.767Z,94.40
2018-01-12T10:12:41.453Z,94.40
2018-01-12T10:15:11.555Z,94.50
2018-01-12T10:17:40.922Z,94.50
2018-01-12T10:20:17.267Z,94.50
2018-01-12T10:22:46.941Z,94.40
2018-01-12T10:25:16.432Z,94.30
2018-01-12T10:27:46.622Z,94.30
2018-01-12T10:30:25.190Z,94.30
2018-01-12T10:33:05.415Z,94.30
2018-01-12T10:35:35.327Z,94.10
2018-01-12T10:38:05.266Z,94.00
2018-01-12T10:40:55.969Z,93.80
2018-01-12T10:43:25.569Z,93.60
2018-01-12T10:46:06.167Z,93.80
2018-01-12T10:48:47.713Z,93.30
2018-01-12T10:51:22.374Z,93.30
2018-01-12T10:53:51.901Z,93.40
2018-01-12T10:56:21.514Z,93.30
2018-01-12T10:58:51.529Z,93.20
2018-01-12T11:01:22.780Z,93.00
2018-01-12T11:03:52.968Z,92.80
2018-01-12T11:06:22.408Z,92.80
2018-01-12T11:08:52.670Z,92.80
2018-01-12T11:11:22.822Z,92.80
2018-01-12T11:13:52.607Z,92.90
2018-01-12T11:16:22.727Z,92.70
2018-01-12T11:18:52.606Z,92.90
2018-01-12T11:21:22.439Z,92.60
2018-01-12T11:23:52.412Z,92.40
2018-01-12T11:26:22.136Z,92.50
2018-01-12T11:28:52.034Z,92.40
2018-01-12T11:31:22.421Z,92.30
2018-01-12T11:33:53.597Z,92.30
2018-01-12T11:36:23.707Z,92.10
2018-01-12T11:38:53.339Z,92.40
2018-01-12T11:41:22.926Z,92.20
2018-01-12T11:43:52.734Z,92.60
2018-01-12T11:46:23.012Z,93.10
2018-01-12T11:48:52.667Z,93.10
2018-01-12T11:51:22.493Z,93.20
2018-01-12T11:53:53.406Z,93.50
2018-01-12T11:56:23.358Z,93.50
2018-01-12T11:58:53.157Z,93.70
2018-01-12T12:01:23.725Z,93.80
2018-01-12T12:03:54.032Z,93.80
2018-01-12T12:06:23.811Z,93.80
2018-01-12T12:08:54.533Z,93.70
2018-01-12T12:11:25.429Z,93.50
2018-01-12T12:13:55.184Z,93.80
2018-01-12T12:16:25.034Z,93.30
2018-01-12T12:18:54.553Z,93.60
2018-01-12T12:21:24.220Z,93.30
2018-01-12T12:23:54.401Z,93.60
2018-01-12T12:26:23.994Z,93.60
2018-01-12T12:28:54.220Z,93.40
2018-01-12T12:31:24.478Z,93.30
2018-01-12T12:33:53.869Z,93.30
2018-01-12T12:36:23.779Z,93.40
2018-01-12T12:38:53.028Z,93.50
2018-01-12T12:41:22.865Z,93.30
2018-01-12T12:43:53.841Z,93.10
2018-01-12T12:46:23.587Z,93.20
2018-01-12T12:48:52.914Z,92.90
2018-01-12T12:51:23.072Z,93.00
2018-01-12T12:53:53.056Z,93.00
2018-01-12T12:56:23.329Z,92.90
2018-01-12T12:58:53.179Z,93.00
2018-01-12T13:01:22.917Z,92.80
2018-01-12T13:03:53.313Z,92.70
2018-01-12T13:06:23.061Z,92.80
2018-01-12T13:08:52.697Z,92.60
2018-01-12T13:11:21.844Z,92.40
2018-01-12T13:13:52.061Z,92.50
2018-01-12T13:16:21.651Z,92.50
2018-01-12T13:18:51.387Z,92.40
2018-01-12T13:21:21.369Z,92.80
2018-01-12T13:23:51.022Z,92.60
2018-01-12T13:26:20.647Z,92.30
2018-01-12T13:28:51.522Z,92.20
2018-01-12T13:31:21.325Z,92.20
2018-01-12T13:33:51.026Z,91.90
2018-01-12T13:36:20.778Z,91.70
2018-01-12T13:38:51.569Z,91.60
2018-01-12T13:41:21.356Z,91.60
2018-01-12T13:43:50.991Z,91.90
2018-01-12T13:46:21.332Z,92.00
2018-01-12T13:48:51.346Z,92.40
2018-01-12T13:51:21.287Z,92.80
2018-01-12T13:53:50.801Z,92.90
2018-01-12T13:56:20.676Z,93.20
2018-01-12T13:58:50.658Z,93.30
2018-01-12T14:01:21.434Z,94.20
2018-01-12T14:03:51.293Z,93.80
2018-01-12T14:06:21.653Z,94.10
2018-01-12T14:08:52.098Z,94.00
2018-01-12T14:11:22.159Z,94.10
2018-01-12T14:13:51.613Z,94.00
2018-01-12T14:16:22.042Z,94.20
2018-01-12T14:18:52.171Z,94.70
2018-01-12T14:21:21.690Z,94.80
2018-01-12T14:23:51.648Z,94.80
2018-01-12T14:26:21.110Z,95.00
2018-01-12T14:28:51.176Z,94.80
2018-01-12T14:31:20.823Z,94.80
2018-01-12T14:33:50.694Z,94.70
2018-01-12T14:36:20.341Z,94.40
2018-01-12T14:38:50.164Z,94.70
2018-01-12T14:41:20.147Z,94.60
2018-01-12T14:43:49.831Z,94.70
2018-01-12T14:46:19.489Z,94.40
2018-01-12T14:48:49.308Z,94.70
2018-01-12T14:51:19.141Z,94.70
2018-01-12T14:53:49.742Z,94.40
2018-01-12T14:56:19.357Z,94.80
2018-01-12T14:58:49.159Z,94.70
2018-01-12T15:01:20.085Z,94.80
2018-01-12T15:03:50.427Z,94.60
2018-01-12T15:06:20.153Z,94.50
2018-01-12T15:08:50.815Z,94.30
2018-01-12T15:11:20.745Z,94.50
2018-01-12T15:13:50.657Z,94.40
2018-01-12T15:16:20.617Z,94.20
2018-01-12T15:18:50.497Z,94.10
2018-01-12T15:21:20.036Z,93.90
2018-01-12T15:23:49.526Z,94.00
2018-01-12T15:26:19.584Z,93.50
2018-01-12T15:28:50.113Z,93.70
2018-01-12T15:31:19.751Z,93.70
2018-01-12T15:33:49.327Z,93.60
2018-01-12T15:36:18.766Z,93.80
2018-01-12T15:38:48.842Z,93.90
2018-01-12T15:41:18.854Z,94.10
2018-01-12T15:43:48.850Z,94.20
2018-01-12T15:48:53.054Z,93.80
2018-01-12T15:51:23.195Z,93.70
2018-01-12T15:53:53.480Z,93.60
2018-01-12T15:56:23.489Z,93.30
2018-01-12T15:58:53.391Z,93.10
2018-01-12T16:01:23.347Z,93.10
2018-01-12T16:03:53.337Z,93.10
2018-01-12T16:06:23.440Z,92.90
2018-01-12T16:08:53.665Z,92.80
2018-01-12T16:11:23.236Z,92.60
2018-01-12T16:13:53.631Z,92.30
2018-01-12T16:16:23.362Z,92.00
2018-01-12T16:18:53.610Z,92.30
2018-01-12T16:21:23.403Z,91.70
2018-01-12T16:23:54.337Z,91.80
2018-01-12T16:26:25.195Z,91.80
2018-01-12T16:29:01.232Z,91.80
2018-01-12T16:31:31.790Z,91.60
2018-01-12T16:34:01.540Z,91.60
2018-01-12T16:36:32.119Z,91.50
2018-01-12T16:39:02.410Z,91.20
2018-01-12T16:41:32.147Z,91.30
2018-01-12T16:44:03.163Z,91.10
2018-01-12T16:46:33.376Z,91.00
2018-01-12T16:49:03.048Z,91.00
2018-01-12T16:51:33.321Z,91.30
2018-01-12T16:54:03.730Z,91.20
2018-01-12T16:56:33.457Z,91.40
2018-01-12T16:59:03.886Z,91.20
2018-01-12T17:01:34.550Z,91.20
2018-01-12T17:04:04.282Z,91.10
2018-01-12T17:06:34.252Z,91.50
2018-01-12T17:09:05.649Z,90.90
2018-01-12T17:11:36.551Z,90.90
2018-01-12T17:14:06.331Z,90.80
2018-01-12T17:16:36.589Z,90.20
2018-01-12T17:19:06.578Z,90.10
2018-01-12T17:21:36.792Z,89.00
2018-01-12T17:24:07.127Z,88.20
2018-01-12T17:26:37.461Z,88.10
2018-01-12T17:29:07.329Z,89.00
2018-01-12T17:31:36.786Z,87.20
2018-01-12T17:34:06.415Z,88.00
2018-01-12T17:36:36.515Z,86.40
2018-01-12T17:39:06.244Z,85.10
2018-01-12T17:41:35.906Z,84.70
2018-01-12T17:44:06.929Z,84.70
2018-01-12T17:46:36.571Z,84.70
2018-01-12T17:49:06.714Z,83.30
2018-01-12T17:51:36.190Z,85.30
2018-01-12T17:54:06.734Z,84.00
2018-01-12T17:56:36.409Z,83.10
2018-01-12T17:59:06.881Z,84.00
2018-01-12T18:01:36.593Z,84.00
2018-01-12T18:04:06.546Z,83.70
2018-01-12T18:06:36.161Z,83.90
2018-01-12T18:09:06.672Z,82.80
2018-01-12T18:11:37.544Z,83.30
2018-01-12T18:14:07.927Z,83.20
2018-01-12T18:16:37.931Z,82.40
2018-01-12T18:19:08.431Z,82.40
2018-01-12T18:21:39.427Z,81.00
2018-01-12T18:24:10.041Z,80.40
2018-01-12T18:26:39.862Z,80.40
2018-01-12T18:29:10.689Z,77.40
2018-01-12T18:31:40.887Z,77.40
2018-01-12T18:34:11.658Z,76.80
2018-01-12T18:36:42.029Z,74.90
2018-01-12T18:39:11.642Z,74.80
2018-01-12T18:41:41.829Z,74.80
2018-01-12T18:44:11.958Z,75.10
2018-01-12T18:46:41.638Z,74.60
2018-01-12T18:49:11.417Z,74.00
2018-01-12T18:51:41.349Z,71.90
2018-01-12T18:54:11.260Z,73.80
2018-01-12T18:56:41.256Z,73.60
2018-01-12T18:59:11.273Z,72.40
2018-01-12T19:01:42.018Z,72.60
2018-01-12T19:04:11.587Z,72.70
2018-01-12T19:06:41.905Z,74.40
2018-01-12T19:09:12.114Z,71.90
2018-01-12T19:11:42.252Z,74.00
2018-01-12T19:14:13.566Z,73.70
2018-01-12T19:16:43.299Z,72.60
2018-01-12T19:19:13.068Z,72.20
2018-01-12T19:21:42.796Z,72.00
2018-01-12T19:24:12.677Z,72.50
2018-01-12T19:26:42.552Z,74.90
2018-01-12T19:29:12.891Z,77.20
2018-01-12T19:31:42.226Z,75.50
2018-01-12T19:34:12.246Z,75.30
2018-01-12T19:36:42.442Z,75.30
2018-01-12T19:39:12.001Z,76.30
2018-01-12T19:41:41.908Z,74.50
2018-01-12T19:44:12.026Z,76.30
2018-01-12T19:46:41.819Z,77.20
2018-01-12T19:49:11.299Z,77.30
2018-01-12T19:51:41.350Z,76.70
2018-01-12T19:54:11.075Z,78.30
2018-01-12T19:56:41.033Z,77.60
2018-01-12T19:59:11.422Z,77.30
2018-01-12T20:01:42.025Z,78.60
2018-01-12T20:04:13.967Z,79.80
2018-01-12T20:06:44.088Z,82.00
2018-01-12T20:09:14.075Z,81.90
2018-01-12T20:11:44.897Z,80.60
2018-01-12T20:14:15.240Z,83.20
2018-01-12T20:16:45.294Z,84.70
2018-01-12T20:19:16.023Z,81.00
2018-01-12T20:21:45.978Z,81.00
2018-01-12T20:24:15.394Z,79.50
2018-01-12T20:26:46.779Z,80.60
2018-01-12T20:29:16.664Z,79.40
2018-01-12T20:31:46.645Z,79.80
2018-01-12T20:34:16.351Z,80.20
2018-01-12T20:36:45.945Z,79.10
2018-01-12T20:39:15.686Z,77.90
2018-01-12T20:41:47.492Z,78.20
2018-01-12T20:44:18.077Z,78.70
2018-01-12T20:46:47.883Z,78.70
2018-01-12T20:49:17.346Z,79.80
2018-01-12T20:51:46.990Z,76.90
2018-01-12T20:54:16.746Z,78.70
2018-01-12T20:56:46.450Z,77.60
2018-01-12T20:59:16.849Z,78.00
2018-01-12T21:01:46.837Z,78.30
2018-01-12T21:04:16.631Z,76.80
2018-01-12T21:06:46.170Z,78.30
2018-01-12T21:09:16.343Z,78.50
2018-01-12T21:11:46.321Z,77.90
2018-01-12T21:14:16.688Z,79.60
2018-01-12T21:16:47.211Z,78.80
2018-01-12T21:19:17.776Z,75.60
2018-01-12T21:21:47.602Z,75.30
2018-01-12T21:24:17.258Z,76.40
2018-01-12T21:26:46.966Z,75.80
2018-01-12T21:29:17.289Z,75.20
2018-01-12T21:31:46.909Z,75.10
2018-01-12T21:34:16.716Z,74.70
2018-01-12T21:36:46.223Z,73.60
2018-01-12T21:39:15.800Z,74.40
2018-01-12T21:41:45.869Z,74.70
2018-01-12T21:44:15.632Z,75.00
2018-01-12T21:46:46.441Z,75.30
2018-01-12T21:49:16.368Z,75.30
2018-01-12T21:51:46.877Z,76.00
2018-01-12T21:54:16.685Z,76.30
2018-01-12T21:56:46.005Z,74.30
2018-01-12T21:59:15.694Z,74.80
2018-01-12T22:01:45.326Z,75.50
2018-01-12T22:04:15.518Z,75.30
2018-01-12T22:06:46.436Z,74.60
2018-01-12T22:09:16.295Z,74.70
2018-01-12T22:11:46.121Z,74.20
2018-01-12T22:14:15.959Z,75.90
2018-01-12T22:16:46.592Z,75.80
2018-01-12T22:19:17.034Z,75.80
2018-01-12T22:21:47.422Z,75.10
2018-01-12T22:24:17.081Z,75.10
2018-01-12T22:26:46.656Z,74.10
2018-01-12T22:29:16.594Z,74.50
2018-01-12T22:31:46.540Z,74.50
2018-01-12T22:34:16.460Z,73.90
2018-01-12T22:36:46.202Z,74.50
2018-01-12T22:39:16.015Z,72.90
2018-01-12T22:41:47.526Z,72.40
2018-01-12T22:44:17.090Z,72.40
2018-01-12T22:46:46.747Z,74.40
2018-01-12T22:49:16.336Z,74.10
2018-01-12T22:51:47.523Z,74.20
2018-01-12T22:54:17.148Z,73.20
2018-01-12T22:56:46.694Z,74.30
2018-01-12T22:59:16.276Z,75.40
2018-01-12T23:01:46.060Z,76.30
2018-01-12T23:04:17.325Z,74.60
2018-01-12T23:06:47.380Z,74.60
2018-01-12T23:09:16.617Z,75.00
2018-01-12T23:11:46.910Z,74.50
2018-01-12T23:14:16.968Z,74.50
2018-01-12T23:16:46.797Z,74.00
2018-01-12T23:19:16.334Z,73.00
2018-01-12T23:21:46.563Z,72.20
2018-01-12T23:24:16.290Z,73.20
2018-01-12T23:26:46.242Z,72.60
2018-01-12T23:29:16.421Z,72.20
2018-01-12T23:31:48.255Z,71.90
2018-01-12T23:34:18.932Z,71.60
2018-01-12T23:36:48.695Z,71.70
2018-01-12T23:39:18.707Z,72.90
2018-01-12T23:41:49.784Z,73.10
2018-01-12T23:44:19.330Z,74.10
2018-01-12T23:46:49.753Z,72.50
2018-01-12T23:49:19.580Z,72.40
2018-01-12T23:51:49.974Z,70.70
2018-01-12T23:54:19.847Z,70.70
2018-01-12T23:56:49.408Z,70.70
2018-01-12T23:59:19.200Z,70.30
